Latest Coastal Weather Observations for Wynyard

IDV60701

Issued at 8:35 am EST Wednesday 24 September 2014 (issued every 10 minutes, with the page automatically refreshed every 10 minutes)

About coastal observations | Map of coastal stations | Coastal observations for VIC | Marine services | Other Formats
Station Details ID: 091107 Name: WYNYARD AIRPORT Lat: -41.00 Lon: 145.73 Height: 12.0 m
Data from the previous 72 hours. | See also: Recent months at Wynyard
Date/Time
EST
Temp

°C
Wind Pressure Rain
since 9am
mm
Weather Cloud Vis
km
Sea
Height
m
Swell
Dir
 
Speed
knots
Gust
knots
hPa Trend Height
m
Period
s
Dir
24/08:30am 10.5 SSE 1 4 1017.5 - 0.0 - Partly cloudy 10 - - - -
24/08:00am 9.7 NW 0 4 1017.7 - 0.0 - Partly cloudy 10 - - - -
24/07:30am 9.3 W 4 7 1017.9 - 0.0 - Cloudy 10 - - - -
24/07:00am 8.0 W 5 6 1017.6 - 0.0 - Partly cloudy 10 - - - -
24/06:30am 6.9 WSW 3 4 1017.7 - 0.0 - - 10 - - - -
24/06:00am 6.6 W 5 6 1017.9 - 0.0 - Cloudy 10 - - - -
24/05:30am 6.9 W 2 3 1017.7 - 0.0 - - 9 - - - -
24/05:00am 7.2 W 4 5 1018.1 - 0.0 - - 10 - - - -
24/04:30am 7.7 WNW 5 6 1018.3 - 0.0 - - 10 - - - -
24/04:00am 6.6 WSW 4 5 1018.4 - 0.0 - - 9 - - - -
24/03:30am 6.5 W 5 6 1018.7 - 0.0 - - 10 - - - -
24/03:00am 5.9 WNW 3 4 1018.8 - 0.0 - Cloudy 9 - - - -
24/02:30am 6.5 WSW 4 4 1019.2 - 0.0 - - 8 - - - -
24/02:00am 7.1 WNW 5 5 1019.8 - 0.0 - - 10 - - - -
24/01:30am 6.7 WSW 3 5 1020.2 - 0.0 - - 7 - - - -
24/01:12am 7.0 NW 4 5 1020.5 - 0.0 - - 10 - - - -
24/01:00am 6.8 WSW 3 5 1020.7 - 0.0 - - 5 - - - -
24/12:58am 6.8 WSW 3 4 1020.7 - 0.0 - - 5 - - - -
24/12:30am 6.5 W 5 7 1020.9 - 0.0 - - 10 - - - -
24/12:00am 6.9 WNW 6 7 1021.1 - 0.0 - Cloudy 10 - - - -
 
Date/Time
EST
Temp

°C
Wind Pressure Rain
since 9am
mm
Weather Cloud Vis
km
Sea
Height
m
Swell
Dir
 
Speed
knots
Gust
knots
hPa Trend Height
m
Period
s
Dir
23/11:30pm 7.4 W 5 6 1021.1 - 0.0 - - 10 - - - -
23/11:00pm 6.8 W 4 5 1021.6 - 0.0 - - 10 - - - -
23/10:40pm 5.6 W 5 6 1021.8 - 0.0 - - 10 - - - -
23/10:30pm 5.9 W 5 6 1021.9 - 0.0 - - 5 - - - -
23/10:26pm 5.5 W 5 6 1021.9 - 0.0 - - 5 - - - -
23/10:16pm 7.2 WNW 5 5 1021.8 - 0.0 - - 10 - - - -
23/10:00pm 5.9 W 4 5 1022.0 - 0.0 - - 2 - - - -
23/09:50pm 5.7 W 5 5 1022.0 - 0.0 - - 5 - - - -
23/09:44pm 6.5 W 5 5 1022.1 - 0.0 - - 9 - - - -
23/09:30pm 7.8 W 4 5 1022.0 - 0.0 - - 5 - - - -
23/09:21pm 7.3 W 4 5 1022.0 - 0.0 - - 10 - - - -
23/09:10pm 7.1 W 4 5 1022.1 - 0.0 - - 5 - - - -
23/09:00pm 7.1 W 5 5 1022.1 - 0.0 - Mostly clear 10 - - - -
23/08:31pm 7.2 CALM 0 0 1022.2 - 0.0 - - 5 - - - -
23/08:30pm 7.2 CALM 0 0 1022.2 - 0.0 - - 7 - - - -
23/08:12pm 7.8 SW 4 5 1022.3 - 0.0 - - 8 - - - -
23/08:00pm 7.9 SW 4 5 1022.4 - 0.0 - - 5 - - - -
23/07:30pm 9.2 CALM 0 0 1022.4 - 0.0 - - 1 - - - -
23/07:28pm 9.0 CALM 0 0 1022.4 - 0.0 - - 5 - - - -
23/07:00pm 9.7 S 2 3 1022.2 - 0.0 - - 10 - - - -
23/06:30pm 11.5 CALM 0 0 1022.2 - 0.0 - - 10 - - - -
23/06:00pm 12.4 CALM 0 0 1022.3 - 0.0 - - 10 - - - -
23/05:30pm 13.0 ENE 4 5 1022.4 - 0.0 - - 10 - - - -
23/05:00pm 13.5 ENE 4 5 1022.4 - 0.0 - - 10 - - - -
23/04:30pm 13.8 NE 5 7 1022.5 - 0.0 - - 10 - - - -
23/04:00pm 14.0 NE 5 7 1022.6 - 0.0 - - 10 - - - -
23/03:30pm 13.7 NE 6 8 1022.8 - 0.0 - - 10 - - - -
23/03:00pm 14.1 NE 7 8 1023.2 - 0.0 - - 10 - - - -
23/02:30pm 14.3 NE 7 8 1023.7 - 0.0 - - 10 - - - -
23/02:00pm 14.7 NE 6 8 1023.9 - 0.0 - - 10 - - - -
23/01:30pm 14.4 NNE 7 9 1024.4 - 0.0 - - 10 - - - -
23/01:00pm 14.5 NE 7 9 1024.7 - 0.0 - - 10 - - - -
23/12:30pm 14.6 NNE 7 8 1025.1 - 0.0 - - 10 - - - -
23/12:00pm 14.2 NE 6 8 1025.4 - 0.0 - - 10 - - - -
23/11:30am 14.6 NE 6 7 1025.6 - 0.0 - - 10 - - - -
23/11:00am 14.1 NE 6 8 1025.9 - 0.0 - - 10 - - - -
23/10:30am 14.3 NE 5 7 1026.1 - 0.0 - - 10 - - - -
23/10:00am 13.8 NE 5 7 1026.5 - 0.0 - - 10 - - - -
23/09:30am 14.0 NE 3 5 1026.6 - 0.0 - - 10 - - - -
23/09:00am 12.2 NW 1 3 1026.8 - 0.0 - - 10 - - - -
23/08:30am 9.8 WNW 4 5 1026.9 - 0.0 - - 10 - - - -
23/08:00am 8.8 WNW 5 6 1026.9 - 0.0 - - 10 - - - -
23/07:30am 7.0 W 5 6 1026.9 - 0.0 - - 10 - - - -
23/07:00am 5.9 W 6 7 1026.9 - 0.0 - Partly cloudy 10 - - - -
23/06:30am 4.7 WNW 6 7 1026.8 - 0.0 - Partly cloudy 10 - - - -
23/06:00am 4.0 WNW 6 7 1026.7 - 0.0 - - 10 - - - -
23/05:30am 3.0 W 6 7 1026.6 - 0.0 - - 10 - - - -
23/05:00am 3.3 WNW 6 7 1026.5 - 0.0 - - 10 - - - -
23/04:30am 3.7 W 6 6 1026.5 - 0.0 - - 10 - - - -
23/04:00am 3.0 W 6 6 1026.5 - 0.0 - - 10 - - - -
23/03:30am 5.1 NW 7 8 1026.3 - 0.0 - - 10 - - - -
23/03:00am 3.7 WNW 6 7 1026.3 - 0.0 - - 10 - - - -
23/02:30am 4.3 WNW 7 7 1026.4 - 0.0 - - 10 - - - -
23/02:00am 5.3 W 5 6 1026.6 - 0.0 - - 10 - - - -
23/01:30am 4.9 W 6 7 1027.1 - 0.0 - - 9 - - - -
23/01:00am 5.1 W 5 5 1027.3 - 0.0 - - 8 - - - -
23/12:30am 5.0 W 4 5 1027.4 - 0.0 - - 10 - - - -
23/12:00am 5.6 W 5 6 1027.4 - 0.0 - - 10 - - - -
 
Date/Time
EST
Temp

°C
Wind Pressure Rain
since 9am
mm
Weather Cloud Vis
km
Sea
Height
m
Swell
Dir
 
Speed
knots
Gust
knots
hPa Trend Height
m
Period
s
Dir
22/11:30pm 5.7 WNW 5 7 1027.4 - 0.0 - - 9 - - - -
22/11:00pm 5.9 SW 5 6 1027.6 - 0.0 - - 10 - - - -
22/10:30pm 6.4 WNW 5 5 1027.7 - 0.0 - - 10 - - - -
22/10:15pm 7.9 NW 4 5 1027.7 - 0.0 - Partly cloudy 10 - - - -
22/10:00pm 7.4 WSW 6 7 1028.0 - 0.0 - Partly cloudy 10 - - - -
22/09:30pm 8.6 SSW 5 8 1027.8 - 0.0 - Cloudy 10 - - - -
22/09:00pm 8.6 S 3 5 1027.6 - 0.0 - Mostly cloudy 10 - - - -
22/08:30pm 8.1 S 4 5 1027.4 - 0.0 - Cloudy 10 - - - -
22/08:08pm 7.5 SSW 3 4 1027.2 - 0.0 - Partly cloudy 10 - - - -
22/08:00pm 7.8 WSW 4 5 1027.2 - 0.0 - Partly cloudy 10 - - - -
22/07:30pm 8.5 W 1 3 1027.0 - 0.0 - - 10 - - - -
22/07:00pm 10.7 WNW 1 4 1026.8 - 0.0 - - 10 - - - -
22/06:30pm 11.4 NNW 3 6 1026.5 - 0.0 - - 10 - - - -
22/06:00pm 12.0 NNW 7 9 1026.4 - 0.0 - - 10 - - - -
22/05:30pm 12.6 NNW 9 11 1026.3 - 0.0 - - 10 - - - -
22/05:00pm 13.1 NNW 10 13 1026.3 - 0.0 - - 10 - - - -
22/04:30pm 13.3 NNW 11 14 1026.4 - 0.0 - - 10 - - - -
22/04:00pm 13.9 NNW 11 14 1026.3 - 0.0 - - 10 - - - -
22/03:30pm 14.0 NNW 12 15 1026.5 - 0.0 - - 10 - - - -
22/03:00pm 14.5 NNW 13 17 1026.7 - 0.0 - - 10 - - - -
22/02:30pm 14.2 NNW 12 16 1027.0 - 0.0 - - 10 - - - -
22/02:00pm 14.6 NNW 11 16 1027.2 - 0.0 - - 10 - - - -
22/01:30pm 14.4 N 11 15 1027.3 - 0.0 - - 10 - - - -
22/01:00pm 14.6 NNW 10 14 1027.6 - 0.0 - - 10 - - - -
22/12:30pm 14.7 NNW 9 13 1027.7 - 0.0 - - 10 - - - -
22/12:00pm 14.4 N 8 13 1028.0 - 0.0 - Partly cloudy 10 - - - -
22/11:30am 13.4 NNE 9 11 1028.3 - 0.0 - Partly cloudy 10 - - - -
22/11:00am 13.5 NNE 9 10 1028.4 - 0.0 - Partly cloudy 10 - - - -
22/10:30am 13.1 WNW 5 12 1028.9 - 0.0 - Cloudy 10 - - - -
22/10:00am 12.5 WNW 4 7 1029.2 - 0.0 - Partly cloudy 10 - - - -
22/09:59am 12.6 WNW 4 7 1029.2 - 0.0 - Partly cloudy 10 - - - -
22/09:47am 12.4 W 3 7 1029.3 - 0.0 - Partly cloudy 10 - - - -
22/09:37am 12.3 WNW 4 6 1029.3 - 0.0 - Partly cloudy 10 - - - -
22/09:30am 12.5 WSW 4 6 1029.3 - 0.0 - Partly cloudy 10 - - - -
22/09:00am 11.1 W 4 6 1029.3 - 0.0 - Mostly cloudy 10 - - - -
22/08:30am 9.3 W 5 7 1029.4 - 0.0 - Cloudy 10 - - - -
22/08:00am 8.0 W 6 7 1029.3 - 0.0 - Cloudy 10 - - - -
22/07:30am 7.4 WNW 5 6 1029.1 - 0.0 - Cloudy 10 - - - -
22/07:00am 6.5 WNW 7 8 1028.9 - 0.0 - Cloudy 10 - - - -
22/06:30am 6.1 WNW 6 8 1028.8 - 0.0 - Cloudy 10 - - - -
22/06:00am 5.4 W 6 7 1028.5 - 0.0 - Cloudy 10 - - - -
22/05:30am 4.4 WNW 6 7 1028.4 - 0.0 - Partly cloudy 10 - - - -
22/05:03am 4.2 WNW 6 7 1028.1 - 0.0 - Partly cloudy 10 - - - -
22/05:00am 4.0 WNW 6 8 1028.0 - 0.0 - Partly cloudy 10 - - - -
22/04:30am 3.5 W 7 7 1027.8 - 0.0 - Partly cloudy 10 - - - -
22/04:28am 3.6 WNW 7 7 1027.8 - 0.0 - Partly cloudy 10 - - - -
22/04:00am 3.5 W 6 7 1027.6 - 0.0 - Partly cloudy 10 - - - -
22/03:54am 4.0 WNW 6 7 1027.5 - 0.0 - Partly cloudy 10 - - - -
22/03:30am 3.4 W 6 7 1027.3 - 0.0 - - 10 - - - -
22/03:00am 4.1 WNW 6 7 1027.3 - 0.0 - - 10 - - - -
22/02:30am 3.7 W 6 7 1027.4 - 0.0 - - 10 - - - -
22/02:00am 3.9 W 6 7 1027.4 - 0.0 - - 10 - - - -
22/01:30am 3.8 W 5 5 1027.7 - 0.0 - - 10 - - - -
22/01:00am 5.0 W 6 6 1028.0 - 0.0 - - 10 - - - -
22/12:30am 5.4 WNW 6 7 1027.7 - 0.0 - - 10 - - - -
22/12:00am 6.7 W 6 8 1027.8 - 0.0 - - 10 - - - -
 
Date/Time
EST
Temp

°C
Wind Pressure Rain
since 9am
mm
Weather Cloud Vis
km
Sea
Height
m
Swell
Dir
 
Speed
knots
Gust
knots
hPa Trend Height
m
Period
s
Dir
21/11:30pm 5.4 W 6 7 1028.1 - 0.0 - - 10 - - - -
21/11:00pm 6.6 WSW 4 6 1028.1 - 0.0 - - 10 - - - -
21/10:30pm 6.3 W 6 7 1028.0 - 0.0 - - 10 - - - -
21/10:00pm 8.2 WNW 8 9 1028.2 - 0.0 - - 10 - - - -
21/09:30pm 8.7 WNW 8 9 1028.2 - 0.0 - - 10 - - - -
21/09:00pm 9.1 W 8 10 1028.2 - 0.0 - - 10 - - - -
21/08:30pm 9.5 W 7 10 1028.2 - 0.0 - - 10 - - - -
21/08:00pm 10.3 W 7 9 1028.1 - 0.0 - - 10 - - - -
21/07:30pm 10.8 W 7 9 1027.7 - 0.0 - - 10 - - - -
21/07:00pm 11.1 W 6 8 1027.7 - 0.0 - - 10 - - - -
21/06:30pm 12.5 WSW 7 10 1027.6 - 0.0 - - 10 - - - -
21/06:00pm 13.6 SW 8 10 1027.2 - 0.0 - - 10 - - - -
21/05:30pm 15.2 SSW 10 15 1027.1 - 0.0 - - 10 - - - -
21/05:00pm 16.5 SW 10 15 1026.9 - 0.0 - - 10 - - - -
21/04:30pm 17.0 SSW 9 12 1026.9 - 0.0 - - 10 - - - -
21/04:00pm 17.6 SW 11 14 1026.8 - 0.0 - - 10 - - - -
21/03:30pm 17.5 SSW 11 15 1026.8 - 0.0 - - 10 - - - -
21/03:00pm 17.9 WSW 12 16 1026.9 - 0.0 - - 10 - - - -
21/02:30pm 18.3 WSW 11 15 1027.0 - 0.0 - - 10 - - - -
21/02:00pm 18.5 WSW 9 15 1027.2 - 0.0 - - 10 - - - -
21/01:30pm 17.9 SW 9 14 1027.3 - 0.0 - - 10 - - - -
21/01:00pm 17.4 WSW 12 17 1027.5 - 0.0 - - 10 - - - -
21/12:30pm 17.3 SSW 9 15 1027.8 - 0.0 - Partly cloudy 10 - - - -
21/12:00pm 17.3 SW 16 22 1027.9 - 0.0 - - 10 - - - -
21/11:30am 17.3 SW 15 18 1028.2 - 0.0 - - 10 - - - -
21/11:00am 16.5 SW 13 18 1028.4 - 0.0 - Partly cloudy 10 - - - -
21/10:30am 16.1 SW 12 17 1028.5 - 0.0 - Partly cloudy 10 - - - -
21/10:00am 15.9 SW 16 22 1028.7 - 0.0 - Partly cloudy 10 - - - -
21/09:30am 15.2 WSW 12 15 1028.9 - 0.0 - Partly cloudy 10 - - - -
21/09:00am 14.3 W 11 14 1028.9 - 0.0 - Mostly clear 10 - - - -

Other Formats:

Comma delimited format used in spreadsheet applications
http://www.bom.gov.au/fwo/IDV60701/IDV60701.95957.axf

JavaScript Object Notation format (JSON) in row-major order
http://www.bom.gov.au/fwo/IDV60701/IDV60701.95957.json